Time;durP1;ratioP1;P1;durP2;ratioP2;P2;SDS_P1;SDS_P2;PMS_P1;PMS_P2;Temp;Humidity;BMP_temperature;BMP_pressure;BME280_temperature;BME280_humidity;BME280_pressure;Samples;Min_cycle;Max_cycle;Signal;HPM_P1;HPM_P2
2023/03/01 00:02:09;;;;;;;14.97;11.57;;;;;;;-0.87;nan;98863.44;5055544;28;20468;-75
2023/03/01 00:04:36;;;;;;;15.37;11.87;;;;;;;-0.93;nan;98863.97;5055656;28;20201;-75
2023/03/01 00:07:02;;;;;;;17.80;12.67;;;;;;;-0.97;nan;98870.38;5055662;28;20442;-75
2023/03/01 00:09:28;;;;;;;15.80;12.70;;;;;;;-0.96;nan;98863.38;5055567;28;20438;-75
2023/03/01 00:11:55;;;;;;;14.80;12.27;;;;;;;-0.94;nan;98870.09;5055068;28;20478;-75
2023/03/01 00:14:21;;;;;;;16.33;12.90;;;;;;;-1.07;nan;98869.47;5055495;28;20442;-75
2023/03/01 00:16:48;;;;;;;17.30;12.20;;;;;;;-1.10;nan;98863.69;5055102;28;20473;-75
2023/03/01 00:19:19;;;;;;;14.67;11.83;;;;;;;-1.11;nan;98859.44;5055421;28;20441;-75
2023/03/01 00:21:46;;;;;;;14.90;11.63;;;;;;;-1.20;nan;98874.06;5055345;28;20458;-75
2023/03/01 00:24:12;;;;;;;17.47;12.33;;;;;;;-1.14;nan;98867.50;5055340;28;20464;-75
2023/03/01 00:26:39;;;;;;;15.83;12.33;;;;;;;-1.19;nan;98875.72;5055286;28;20445;-75
2023/03/01 00:29:05;;;;;;;16.63;10.97;;;;;;;-0.86;nan;98874.72;5055062;28;20445;-75
2023/03/01 00:31:33;;;;;;;15.63;12.43;;;;;;;-0.69;nan;98874.94;5055090;28;20501;-75
2023/03/01 00:34:03;;;;;;;16.23;12.07;;;;;;;-0.85;nan;98871.16;5055150;28;20446;-75
2023/03/01 00:36:33;;;;;;;18.70;13.07;;;;;;;-1.07;nan;98861.63;5055100;28;20434;-75
2023/03/01 00:38:59;;;;;;;14.83;11.80;;;;;;;-1.11;nan;98872.47;5054995;28;20521;-76
2023/03/01 00:41:27;;;;;;;17.27;11.77;;;;;;;-1.17;nan;98862.56;5054809;28;20434;-75
2023/03/01 00:43:54;;;;;;;15.80;12.13;;;;;;;-1.23;nan;98863.88;5054960;28;20503;-76
2023/03/01 00:46:24;;;;;;;18.87;12.77;;;;;;;-1.17;nan;98865.16;5054888;28;20448;-76
2023/03/01 00:48:50;;;;;;;13.23;11.80;;;;;;;-1.10;nan;98861.91;5054462;28;20525;-75
2023/03/01 00:51:22;;;;;;;14.53;11.90;;;;;;;-1.13;nan;98858.72;5054714;28;20478;-75
2023/03/01 00:53:52;;;;;;;15.63;12.13;;;;;;;-1.21;nan;98863.75;5054783;28;20418;-75
2023/03/01 00:56:19;;;;;;;17.33;12.00;;;;;;;-1.16;nan;98864.19;5054998;28;20294;-75
2023/03/01 00:58:46;;;;;;;16.47;12.27;;;;;;;-0.82;nan;98863.88;5054645;28;20521;-75
2023/03/01 01:01:17;;;;;;;18.60;12.67;;;;;;;-0.82;nan;98861.25;5054207;28;20441;-76
2023/03/01 01:03:50;;;;;;;16.30;12.50;;;;;;;-0.94;nan;98861.47;5054480;28;20465;-76
2023/03/01 01:06:25;;;;;;;15.83;11.57;;;;;;;-0.96;nan;98865.97;5054440;28;20434;-76
2023/03/01 01:08:53;;;;;;;20.20;12.60;;;;;;;-1.16;nan;98858.97;5054376;28;20433;-75
2023/03/01 01:11:20;;;;;;;17.37;12.03;;;;;;;-0.93;nan;98860.50;5053974;28;20478;-75
2023/03/01 01:13:48;;;;;;;15.10;12.57;;;;;;;-0.88;nan;98858.34;5054201;28;20466;-75
2023/03/01 01:16:16;;;;;;;16.60;13.20;;;;;;;-0.89;nan;98862.72;5053972;28;20450;-75
2023/03/01 01:18:42;;;;;;;17.87;13.10;;;;;;;-0.85;nan;98858.91;5053874;28;20929;-76
2023/03/01 01:21:15;;;;;;;16.03;12.17;;;;;;;-0.85;nan;98858.09;5053861;28;20944;-76
2023/03/01 01:23:44;;;;;;;16.50;11.53;;;;;;;-0.90;nan;98858.47;5053617;28;20829;-75
2023/03/01 01:26:14;;;;;;;15.20;11.80;;;;;;;-1.12;nan;98855.97;5054065;28;20438;-75
2023/03/01 01:28:40;;;;;;;17.63;12.77;;;;;;;-1.16;nan;98848.53;5054042;28;20442;-76
2023/03/01 01:31:07;;;;;;;16.30;12.53;;;;;;;-1.21;nan;98843.69;5053919;28;20474;-75
2023/03/01 01:33:34;;;;;;;15.30;12.67;;;;;;;-1.31;nan;98834.97;5053568;28;20999;-75
2023/03/01 01:36:00;;;;;;;19.17;12.00;;;;;;;-1.25;nan;98839.72;5053904;28;20441;-75
2023/03/01 01:38:26;;;;;;;16.53;12.83;;;;;;;-1.19;nan;98831.38;5053578;28;20449;-75
2023/03/01 01:40:53;;;;;;;16.40;12.30;;;;;;;-1.26;nan;98824.19;5054099;28;20437;-75
2023/03/01 01:43:43;;;;;;;19.13;12.77;;;;;;;-1.24;nan;98830.91;5053728;28;20489;-75
2023/03/01 01:46:29;;;;;;;17.23;12.63;;;;;;;-1.18;nan;98829.56;5053440;28;20419;-75
2023/03/01 01:49:02;;;;;;;14.90;11.60;;;;;;;-1.17;nan;98821.63;5053725;28;20445;-76
2023/03/01 01:51:38;;;;;;;14.13;11.87;;;;;;;-1.27;nan;98819.88;5053568;28;20462;-76
2023/03/01 01:54:11;;;;;;;18.27;12.97;;;;;;;-1.05;nan;98825.81;5053630;28;20774;-75
2023/03/01 01:56:40;;;;;;;15.00;11.83;;;;;;;-1.01;nan;98818.56;5053478;28;20427;-76
2023/03/01 01:59:06;;;;;;;15.50;12.67;;;;;;;-0.97;nan;98822.56;5051917;28;20453;-75
2023/03/01 02:01:33;;;;;;;16.07;12.23;;;;;;;-1.00;nan;98818.44;5053036;28;20948;-75
2023/03/01 02:03:59;;;;;;;16.20;12.67;;;;;;;-1.02;nan;98825.59;5053638;28;20468;-76
2023/03/01 02:06:37;;;;;;;17.37;12.93;;;;;;;-1.02;nan;98809.09;5053091;28;20442;-76
2023/03/01 02:09:12;;;;;;;18.83;13.70;;;;;;;-1.03;nan;98808.25;5053464;28;20427;-76
2023/03/01 02:11:38;;;;;;;16.90;12.63;;;;;;;-0.97;nan;98793.88;5052133;28;20461;-75
2023/03/01 02:14:05;;;;;;;18.57;12.57;;;;;;;-0.87;nan;98798.19;5053345;28;20449;-75
2023/03/01 02:16:31;;;;;;;15.93;12.50;;;;;;;-0.82;nan;98796.00;5052837;28;20453;-76
2023/03/01 02:18:59;;;;;;;16.53;12.43;;;;;;;-0.78;nan;98797.41;5053296;28;20434;-76
2023/03/01 02:21:25;;;;;;;14.93;12.10;;;;;;;-0.68;nan;98798.25;5053180;28;20453;-75
2023/03/01 02:23:51;;;;;;;17.23;12.40;;;;;;;-0.70;nan;98787.13;5053202;28;20439;-75
2023/03/01 02:26:41;;;;;;;16.30;12.93;;;;;;;-0.72;nan;98791.66;5052921;28;20797;-75
2023/03/01 02:29:08;;;;;;;18.30;13.10;;;;;;;-0.78;nan;98780.91;5052953;28;20916;-75
2023/03/01 02:31:43;;;;;;;16.60;12.47;;;;;;;-0.70;nan;98779.31;5052736;28;20482;-75
2023/03/01 02:34:24;;;;;;;14.10;11.97;;;;;;;-0.76;nan;98779.00;5052924;28;20678;-75
2023/03/01 02:37:14;;;;;;;14.33;11.40;;;;;;;-0.73;nan;98774.34;5053502;28;20476;-75
2023/03/01 02:39:47;;;;;;;18.60;12.60;;;;;;;-0.78;nan;98766.06;5053108;28;20189;-75
2023/03/01 02:42:17;;;;;;;17.37;12.87;;;;;;;-0.62;nan;98771.63;5051566;28;20799;-75
2023/03/01 02:44:44;;;;;;;16.87;12.33;;;;;;;-0.75;nan;98770.22;5053057;28;20205;-75
2023/03/01 02:47:11;;;;;;;15.17;11.73;;;;;;;-0.51;nan;98765.47;5053007;28;20300;-75
2023/03/01 02:49:38;;;;;;;17.03;13.00;;;;;;;-0.70;nan;98768.03;5053010;28;20453;-75
2023/03/01 02:52:29;;;;;;;14.53;12.60;;;;;;;-0.81;nan;98766.31;5054808;28;20229;-75
2023/03/01 02:55:04;;;;;;;14.57;11.87;;;;;;;-0.81;nan;98768.13;5056666;28;20284;-76
2023/03/01 02:57:33;;;;;;;17.17;12.60;;;;;;;-0.72;nan;98755.09;5056906;28;20197;-75
2023/03/01 03:00:06;;;;;;;17.47;13.10;;;;;;;-0.68;nan;98753.03;5056839;28;20215;-76
2023/03/01 03:02:37;;;;;;;15.77;12.73;;;;;;;-0.72;nan;98749.06;5056761;28;20253;-75
2023/03/01 03:05:05;;;;;;;16.60;12.40;;;;;;;-0.64;nan;98736.16;5056785;28;20190;-75
2023/03/01 03:07:34;;;;;;;18.10;12.67;;;;;;;-0.60;nan;98738.38;5056660;28;20205;-76
2023/03/01 03:10:01;;;;;;;17.27;13.40;;;;;;;-0.66;nan;98738.94;5056679;28;20209;-76
2023/03/01 03:12:27;;;;;;;18.50;12.93;;;;;;;-0.66;nan;98738.94;5056464;28;20229;-76
2023/03/01 03:14:53;;;;;;;15.70;12.33;;;;;;;-0.63;nan;98748.28;5056356;28;20589;-76
2023/03/01 03:17:20;;;;;;;16.33;13.13;;;;;;;-0.63;nan;98738.63;5056613;28;20194;-76
2023/03/01 03:19:46;;;;;;;16.50;12.80;;;;;;;-0.63;nan;98732.63;5056487;28;20211;-75
2023/03/01 03:22:13;;;;;;;16.97;12.63;;;;;;;-0.65;nan;98727.53;5054865;28;20225;-76
2023/03/01 03:24:40;;;;;;;16.07;12.50;;;;;;;-0.56;nan;98726.72;5056112;28;20211;-76
2023/03/01 03:27:06;;;;;;;15.70;12.20;;;;;;;-0.50;nan;98727.94;5056337;28;20205;-76
2023/03/01 03:29:34;;;;;;;16.90;12.90;;;;;;;-0.54;nan;98730.00;5056262;28;20205;-76
2023/03/01 03:32:00;;;;;;;17.73;13.03;;;;;;;-0.56;nan;98725.88;5056022;28;20240;-76
2023/03/01 03:34:27;;;;;;;19.10;13.17;;;;;;;-0.46;nan;98737.19;5056207;28;20209;-75
2023/03/01 03:36:59;;;;;;;18.20;13.03;;;;;;;-0.45;nan;98734.44;5056094;28;20211;-76
2023/03/01 03:39:27;;;;;;;18.30;12.83;;;;;;;-0.38;nan;98732.13;5056090;28;20263;-76
2023/03/01 03:41:54;;;;;;;15.70;12.40;;;;;;;-0.39;nan;98733.91;5055950;28;20628;-75
2023/03/01 03:44:21;;;;;;;17.77;14.50;;;;;;;-0.27;nan;98739.84;5055756;28;20213;-75
2023/03/01 03:46:48;;;;;;;21.63;13.80;;;;;;;-0.34;nan;98739.56;5055918;28;20453;-75
2023/03/01 03:49:14;;;;;;;18.13;13.10;;;;;;;-0.25;nan;98745.75;5055541;28;20210;-75
2023/03/01 03:51:40;;;;;;;16.67;13.13;;;;;;;-0.30;nan;98732.28;5055296;28;20221;-75
2023/03/01 03:54:07;;;;;;;18.17;14.00;;;;;;;-0.28;nan;98731.19;5055812;28;20205;-75
2023/03/01 03:56:33;;;;;;;18.80;13.10;;;;;;;-0.29;nan;98718.25;5055670;28;20201;-75
2023/03/01 03:58:59;;;;;;;18.60;14.60;;;;;;;-0.19;nan;98726.91;5055640;28;20215;-75
2023/03/01 04:01:26;;;;;;;17.73;13.50;;;;;;;-0.17;nan;98722.41;5055933;28;20201;-75
2023/03/01 04:03:54;;;;;;;17.97;13.67;;;;;;;-0.19;nan;98716.47;5054949;28;20209;-75
2023/03/01 04:06:21;;;;;;;18.23;13.93;;;;;;;-0.11;nan;98722.69;5054985;28;20209;-76
2023/03/01 04:08:50;;;;;;;19.03;13.33;;;;;;;-0.10;nan;98711.25;5055364;28;20207;-76
2023/03/01 04:11:29;;;;;;;16.93;13.57;;;;;;;-0.14;nan;98709.88;5055147;28;20478;-75
2023/03/01 04:13:57;;;;;;;20.37;13.77;;;;;;;-0.17;nan;98706.72;5055253;28;20552;-75
2023/03/01 04:16:24;;;;;;;19.60;14.17;;;;;;;-0.10;nan;98705.19;5054653;28;20212;-76
2023/03/01 04:18:52;;;;;;;16.80;13.73;;;;;;;-0.08;nan;98704.09;5054792;28;20625;-76
2023/03/01 04:21:20;;;;;;;20.03;13.77;;;;;;;-0.11;nan;98698.31;5054606;28;20730;-76
2023/03/01 04:23:46;;;;;;;17.93;13.70;;;;;;;-0.10;nan;98700.81;5054896;28;20248;-75
2023/03/01 04:26:12;;;;;;;16.87;13.70;;;;;;;-0.07;nan;98691.88;5055087;28;20211;-75
2023/03/01 04:28:42;;;;;;;18.73;14.37;;;;;;;0.00;nan;98703.44;5055107;28;20205;-76
2023/03/01 04:31:18;;;;;;;15.63;13.33;;;;;;;-0.02;nan;98703.56;5054646;28;20283;-75
2023/03/01 04:33:44;;;;;;;17.43;12.83;;;;;;;-0.01;nan;98694.75;5054264;28;20225;-76
2023/03/01 04:36:12;;;;;;;18.17;13.63;;;;;;;-0.03;nan;98698.47;5054662;28;20551;-75
2023/03/01 04:38:39;;;;;;;18.23;13.60;;;;;;;-0.10;nan;98695.59;5054690;28;20212;-75
2023/03/01 04:41:07;;;;;;;19.27;13.50;;;;;;;0.05;nan;98704.66;5054392;28;20209;-75
2023/03/01 04:43:34;;;;;;;19.50;14.47;;;;;;;-0.06;nan;98702.19;5054520;28;20221;-75
2023/03/01 04:46:03;;;;;;;17.57;14.10;;;;;;;0.09;nan;98700.81;5054543;28;20254;-75
2023/03/01 04:48:32;;;;;;;19.00;14.40;;;;;;;-0.04;nan;98700.25;5054557;28;20232;-75
2023/03/01 04:51:02;;;;;;;17.97;13.70;;;;;;;-0.03;nan;98698.47;5054205;28;20305;-75
2023/03/01 04:53:29;;;;;;;17.30;13.57;;;;;;;-0.03;nan;98696.66;5054532;28;20225;-75
2023/03/01 04:55:56;;;;;;;21.57;14.57;;;;;;;-0.04;nan;98691.59;5054605;28;20205;-75
2023/03/01 04:58:28;;;;;;;16.63;13.93;;;;;;;0.00;nan;98696.41;5054485;28;20201;-75
2023/03/01 05:00:55;;;;;;;18.57;13.70;;;;;;;0.15;nan;98689.78;5054335;28;20205;-75
2023/03/01 05:03:22;;;;;;;17.23;14.07;;;;;;;0.10;nan;98697.22;5053955;28;20225;-75
2023/03/01 05:05:50;;;;;;;18.53;13.30;;;;;;;0.03;nan;98700.53;5054078;28;20201;-75
2023/03/01 05:08:18;;;;;;;21.30;14.30;;;;;;;0.15;nan;98689.78;5053862;28;20213;-75
2023/03/01 05:10:51;;;;;;;17.90;14.10;;;;;;;0.09;nan;98692.13;5054271;28;20209;-75
2023/03/01 05:13:21;;;;;;;19.20;13.93;;;;;;;0.10;nan;98696.41;5054096;28;20233;-75
2023/03/01 05:16:01;;;;;;;18.23;13.60;;;;;;;0.05;nan;98696.81;5053093;28;20267;-75
2023/03/01 05:18:32;;;;;;;17.70;14.10;;;;;;;0.03;nan;98698.75;5053821;28;20637;-75
2023/03/01 05:21:05;;;;;;;18.87;14.00;;;;;;;0.07;nan;98691.44;5053531;28;20193;-75
2023/03/01 05:23:32;;;;;;;18.97;14.20;;;;;;;0.05;nan;98685.56;5053579;28;20228;-75
2023/03/01 05:26:00;;;;;;;18.07;13.83;;;;;;;0.18;nan;98689.53;5053509;28;20587;-76
2023/03/01 05:28:27;;;;;;;18.80;13.33;;;;;;;0.18;nan;98686.06;5053137;28;20208;-76
2023/03/01 05:30:54;;;;;;;18.97;14.10;;;;;;;0.08;nan;98680.03;5053798;28;20317;-75
2023/03/01 05:33:21;;;;;;;17.47;13.93;;;;;;;0.31;nan;98689.22;5053181;28;20692;-76
2023/03/01 05:35:49;;;;;;;17.80;14.07;;;;;;;0.40;nan;98698.03;5053530;28;20205;-76
2023/03/01 05:38:17;;;;;;;18.87;13.67;;;;;;;0.26;nan;98695.84;5053169;28;20297;-75
2023/03/01 05:40:45;;;;;;;18.27;14.17;;;;;;;0.10;nan;98684.16;5053415;28;20212;-75
2023/03/01 05:43:14;;;;;;;18.57;14.20;;;;;;;0.17;nan;98689.66;5053117;28;20231;-75
2023/03/01 05:45:41;;;;;;;20.40;13.50;;;;;;;0.21;nan;98695.44;5053292;28;20212;-75
2023/03/01 05:48:08;;;;;;;17.93;13.03;;;;;;;0.17;nan;98687.88;5052981;28;20679;-75
2023/03/01 05:50:38;;;;;;;16.17;12.80;;;;;;;0.14;nan;98690.75;5053865;28;20538;-75
2023/03/01 05:53:14;;;;;;;17.60;14.47;;;;;;;0.05;nan;98682.94;5052997;28;20229;-75
2023/03/01 05:55:42;;;;;;;17.57;14.47;;;;;;;0.05;nan;98698.63;5053271;28;20193;-75
2023/03/01 05:58:13;;;;;;;19.40;14.17;;;;;;;0.13;nan;98680.44;5053318;28;20233;-75
2023/03/01 06:00:41;;;;;;;19.87;13.83;;;;;;;0.15;nan;98676.72;5053366;28;20205;-75
2023/03/01 06:03:07;;;;;;;20.07;14.27;;;;;;;0.02;nan;98672.75;5053014;28;20228;-75
2023/03/01 06:05:33;;;;;;;18.13;13.43;;;;;;;0.03;nan;98669.16;5052911;28;20666;-76
2023/03/01 06:08:01;;;;;;;18.90;14.10;;;;;;;0.18;nan;98678.22;5052939;28;20207;-76
2023/03/01 06:10:28;;;;;;;18.17;13.73;;;;;;;0.22;nan;98687.44;5052749;28;20205;-76
2023/03/01 06:12:55;;;;;;;20.23;15.33;;;;;;;0.11;nan;98669.31;5052733;28;20233;-75
2023/03/01 06:15:22;;;;;;;18.03;14.57;;;;;;;0.23;nan;98679.47;5052346;28;20209;-75
2023/03/01 06:17:48;;;;;;;18.30;14.17;;;;;;;0.13;nan;98669.97;5052491;28;20215;-76
2023/03/01 06:20:21;;;;;;;22.13;14.90;;;;;;;0.03;nan;98682.22;5052687;28;20216;-76
2023/03/01 06:22:48;;;;;;;22.10;14.63;;;;;;;0.02;nan;98672.75;5052525;28;20217;-76
2023/03/01 06:25:17;;;;;;;19.07;14.40;;;;;;;0.00;nan;98680.72;5052720;28;20204;-76
2023/03/01 06:27:45;;;;;;;20.13;15.07;;;;;;;-0.04;nan;98678.53;5057382;28;20212;-76
2023/03/01 06:30:13;;;;;;;18.37;14.53;;;;;;;0.03;nan;98670.00;5056433;28;20211;-76
2023/03/01 06:32:41;;;;;;;21.10;15.10;;;;;;;0.08;nan;98669.56;5056358;28;20237;-76
2023/03/01 06:35:09;;;;;;;19.30;14.90;;;;;;;0.08;nan;98667.78;5056591;28;20263;-76
2023/03/01 06:37:36;;;;;;;20.67;14.17;;;;;;;0.17;nan;98670.53;5056677;28;20205;-76
2023/03/01 06:40:07;;;;;;;22.20;13.73;;;;;;;0.21;nan;98669.31;5056742;28;20255;-76
2023/03/01 06:42:36;;;;;;;18.37;13.30;;;;;;;0.21;nan;98674.53;5056531;28;20233;-76
2023/03/01 06:45:04;;;;;;;20.13;13.93;;;;;;;0.23;nan;98682.06;5056414;28;20215;-76
2023/03/01 06:47:31;;;;;;;18.97;15.10;;;;;;;0.12;nan;98688.44;5056495;28;20205;-76
2023/03/01 06:49:57;;;;;;;18.83;13.73;;;;;;;0.22;nan;98679.59;5056212;28;20201;-76
2023/03/01 06:52:23;;;;;;;21.27;14.43;;;;;;;0.28;nan;98679.88;5055922;28;20225;-76
2023/03/01 06:54:50;;;;;;;19.20;14.80;;;;;;;0.15;nan;98681.94;5055815;28;20684;-76
2023/03/01 06:57:16;;;;;;;20.50;14.53;;;;;;;0.44;nan;98675.88;5060914;28;20683;-85
2023/03/01 06:59:43;;;;;;;18.83;14.20;;;;;;;0.51;nan;98677.78;5059984;28;20220;-77
2023/03/01 07:02:14;;;;;;;19.77;14.50;;;;;;;0.27;nan;98681.81;5061563;28;20225;-77
2023/03/01 07:04:41;;;;;;;19.53;14.13;;;;;;;0.21;nan;98677.16;5080346;28;20204;-77
2023/03/01 07:07:08;;;;;;;18.73;14.93;;;;;;;0.33;nan;98680.28;5080276;28;20205;-76
2023/03/01 07:09:34;;;;;;;20.77;13.97;;;;;;;0.22;nan;98685.66;5079315;28;20204;-75
2023/03/01 07:12:01;;;;;;;20.87;14.40;;;;;;;0.28;nan;98673.00;5078799;28;20221;-76
2023/03/01 07:14:28;;;;;;;20.03;15.27;;;;;;;0.24;nan;98681.09;5078442;28;20205;-77
2023/03/01 07:16:54;;;;;;;21.37;15.97;;;;;;;0.06;nan;98672.31;5078800;28;20289;-76
2023/03/01 07:19:22;;;;;;;21.50;15.27;;;;;;;0.19;nan;98672.06;5079933;28;20215;-76
2023/03/01 07:21:49;;;;;;;18.40;13.73;;;;;;;0.18;nan;98668.59;5076847;28;20225;-76
2023/03/01 07:24:15;;;;;;;18.83;14.63;;;;;;;0.26;nan;98670.50;5077548;28;20208;-76
2023/03/01 07:26:42;;;;;;;19.37;14.67;;;;;;;0.23;nan;98663.78;5077302;28;20223;-75
2023/03/01 07:29:10;;;;;;;20.73;14.00;;;;;;;0.33;nan;98659.34;5078648;28;20295;-76
2023/03/01 07:31:36;;;;;;;20.70;14.73;;;;;;;0.28;nan;98659.91;5077481;28;20212;-76
2023/03/01 07:34:03;;;;;;;22.83;16.10;;;;;;;0.22;nan;98657.88;5075523;28;20215;-72
2023/03/01 07:36:30;;;;;;;20.83;18.25;;;;;;;0.35;nan;98651.38;5074319;28;20917;-72
2023/03/01 07:38:57;;;;;;;21.23;16.30;;;;;;;0.47;nan;98659.88;5075032;28;20204;-73
2023/03/01 07:41:24;;;;;;;22.87;16.27;;;;;;;0.24;nan;98660.19;5075060;28;20215;-72
2023/03/01 07:43:50;;;;;;;18.67;14.93;;;;;;;0.40;nan;98645.72;5074604;28;20656;-73
2023/03/01 07:46:18;;;;;;;21.87;15.37;;;;;;;0.47;nan;98653.66;5075018;28;20231;-72
2023/03/01 07:48:44;;;;;;;22.27;15.40;;;;;;;0.55;nan;98644.31;5074964;28;20663;-72
2023/03/01 07:51:10;;;;;;;19.87;15.03;;;;;;;0.50;nan;98649.13;5074975;28;20204;-72
2023/03/01 07:53:37;;;;;;;19.63;15.00;;;;;;;0.64;nan;98651.31;5075679;28;20233;-72
2023/03/01 07:56:13;;;;;;;19.03;15.30;;;;;;;0.63;nan;98647.84;5074867;28;20219;-72
2023/03/01 07:58:42;;;;;;;18.50;14.67;;;;;;;0.40;nan;98641.31;5074614;28;20189;-72
2023/03/01 08:01:11;;;;;;;17.33;13.13;;;;;;;0.52;nan;98640.19;5075303;28;20536;-73
2023/03/01 08:03:38;;;;;;;18.40;14.67;;;;;;;0.52;nan;98637.56;5074967;28;20585;-72
2023/03/01 08:06:07;;;;;;;18.87;14.93;;;;;;;0.44;nan;98641.88;5074809;28;20208;-72
2023/03/01 08:08:33;;;;;;;20.40;15.60;;;;;;;0.62;nan;98627.09;5075499;28;20220;-72
2023/03/01 08:11:02;;;;;;;20.27;15.03;;;;;;;0.57;nan;98632.72;5075309;28;20200;-72
2023/03/01 08:13:28;;;;;;;22.30;14.87;;;;;;;0.65;nan;98626.78;5074576;28;20231;-71
2023/03/01 08:15:55;;;;;;;19.93;14.30;;;;;;;0.65;nan;98634.63;5074519;28;20216;-71
2023/03/01 08:18:22;;;;;;;18.83;15.37;;;;;;;0.78;nan;98630.75;5074920;28;20200;-72
2023/03/01 08:20:48;;;;;;;18.73;15.60;;;;;;;0.78;nan;98622.88;5075089;28;20617;-72
2023/03/01 08:23:15;;;;;;;19.53;16.47;;;;;;;0.90;nan;98628.75;5074693;28;20224;-72
2023/03/01 08:25:41;;;;;;;19.07;14.50;;;;;;;0.97;nan;98627.19;5074885;28;20201;-72
2023/03/01 08:28:08;;;;;;;21.07;14.20;;;;;;;1.11;nan;98626.72;5074623;28;20208;-72
2023/03/01 08:30:35;;;;;;;23.07;14.67;;;;;;;0.97;nan;98630.66;5074036;28;20213;-72
2023/03/01 08:33:01;;;;;;;18.13;14.23;;;;;;;1.10;nan;98627.69;5074198;28;20636;-72
2023/03/01 08:35:27;;;;;;;20.27;14.43;;;;;;;1.18;nan;98633.03;5074705;28;20205;-72
2023/03/01 08:37:54;;;;;;;19.30;15.50;;;;;;;1.20;nan;98626.66;5075129;28;20215;-72
2023/03/01 08:40:20;;;;;;;19.03;15.07;;;;;;;1.23;nan;98628.16;5074610;28;20201;-72
2023/03/01 08:42:47;;;;;;;24.03;16.40;;;;;;;1.36;nan;98626.03;5073961;28;20220;-72
2023/03/01 08:45:14;;;;;;;20.73;14.83;;;;;;;1.35;nan;98622.56;5074258;28;20219;-72
2023/03/01 08:47:40;;;;;;;19.10;13.23;;;;;;;1.40;nan;98622.13;5074272;28;20571;-72
2023/03/01 08:50:07;;;;;;;20.77;15.13;;;;;;;1.25;nan;98626.22;5074383;28;20208;-71
2023/03/01 08:52:34;;;;;;;20.43;16.43;;;;;;;1.27;nan;98616.44;5074808;28;20243;-71
2023/03/01 08:55:01;;;;;;;19.37;16.00;;;;;;;1.27;nan;98619.88;5074438;28;20569;-72
2023/03/01 08:57:27;;;;;;;20.33;14.90;;;;;;;1.39;nan;98615.25;5074245;28;20205;-71
2023/03/01 08:59:55;;;;;;;21.60;15.33;;;;;;;1.36;nan;98618.16;5074415;28;20235;-72
2023/03/01 09:02:22;;;;;;;20.80;14.70;;;;;;;1.46;nan;98619.75;5074128;28;20643;-72
2023/03/01 09:04:49;;;;;;;18.87;14.47;;;;;;;1.48;nan;98607.31;5074162;28;20226;-72
2023/03/01 09:07:15;;;;;;;18.97;15.00;;;;;;;1.56;nan;98607.41;5073968;28;20204;-72
2023/03/01 09:09:41;;;;;;;20.10;16.00;;;;;;;1.54;nan;98606.72;5074133;28;20204;-72
2023/03/01 09:12:08;;;;;;;18.17;15.50;;;;;;;1.67;nan;98606.38;5073767;28;20232;-72
2023/03/01 09:14:34;;;;;;;20.37;16.63;;;;;;;1.63;nan;98608.44;5073666;28;20212;-72
2023/03/01 09:17:02;;;;;;;21.70;16.10;;;;;;;1.77;nan;98607.09;5074519;28;20188;-72
2023/03/01 09:19:29;;;;;;;21.63;16.40;;;;;;;1.78;nan;98587.78;5074001;28;20568;-72
2023/03/01 09:21:58;;;;;;;18.27;14.10;;;;;;;1.97;nan;98585.81;5073627;28;20221;-72
2023/03/01 09:24:25;;;;;;;19.03;14.57;;;;;;;2.11;nan;98585.25;5073741;28;20216;-72
2023/03/01 09:26:55;;;;;;;20.53;15.23;;;;;;;2.11;nan;98576.56;5073330;28;20208;-72
2023/03/01 09:29:21;;;;;;;22.40;16.40;;;;;;;1.89;nan;98582.31;5073311;28;20273;-72
2023/03/01 09:31:48;;;;;;;21.67;17.03;;;;;;;1.98;nan;98576.16;5073590;28;20381;-72
2023/03/01 09:34:15;;;;;;;22.03;15.77;;;;;;;2.10;nan;98577.53;5073409;28;20235;-73
2023/03/01 09:36:42;;;;;;;21.53;16.07;;;;;;;2.23;nan;98581.41;5073522;28;20212;-72
2023/03/01 09:39:09;;;;;;;20.13;15.80;;;;;;;2.08;nan;98582.13;5073068;28;20660;-72
2023/03/01 09:42:01;;;;;;;20.40;15.07;;;;;;;2.24;nan;98579.59;5073396;28;20205;-73
2023/03/01 09:44:52;;;;;;;19.93;14.83;;;;;;;2.42;nan;98575.94;5073413;28;20211;-73
2023/03/01 09:47:22;;;;;;;18.50;14.87;;;;;;;2.42;nan;98569.88;5073419;28;20215;-72
2023/03/01 09:50:17;;;;;;;22.07;15.40;;;;;;;2.52;nan;98578.47;5073415;28;20230;-72
2023/03/01 09:52:49;;;;;;;22.47;15.87;;;;;;;2.52;nan;98576.66;5068884;28;20282;-72
2023/03/01 09:55:18;;;;;;;20.17;16.40;;;;;;;2.53;nan;98572.25;5073398;28;20192;-72
2023/03/01 09:58:02;;;;;;;20.30;15.43;;;;;;;2.76;nan;98566.28;5073374;28;20540;-72
2023/03/01 10:00:44;;;;;;;18.77;15.27;;;;;;;3.03;nan;98563.41;5071370;28;20220;-72
2023/03/01 10:03:31;;;;;;;17.73;15.27;;;;;;;2.97;nan;98557.97;5073262;28;20247;-72
2023/03/01 10:06:05;;;;;;;20.13;15.13;;;;;;;3.00;nan;98557.66;5073291;28;20196;-72
2023/03/01 10:08:43;;;;;;;19.13;15.53;;;;;;;3.24;nan;98555.94;5073346;28;20189;-72
2023/03/01 10:11:24;;;;;;;18.77;15.10;;;;;;;3.25;nan;98551.50;5073427;28;20189;-72
2023/03/01 10:14:12;;;;;;;20.57;15.70;;;;;;;3.12;nan;98545.91;5072871;28;20220;-72
2023/03/01 10:16:49;;;;;;;24.53;16.57;;;;;;;3.25;nan;98541.81;5072556;28;20215;-72
2023/03/01 10:19:25;;;;;;;18.90;15.33;;;;;;;3.55;nan;98540.38;5072676;28;20640;-72
2023/03/01 10:21:52;;;;;;;21.80;16.60;;;;;;;3.65;nan;98541.88;5073064;28;20228;-72
2023/03/01 10:24:21;;;;;;;20.83;15.87;;;;;;;3.60;nan;98538.06;5073058;28;20608;-73
2023/03/01 10:26:59;;;;;;;19.03;15.47;;;;;;;3.68;nan;98524.94;5072849;28;20223;-72
2023/03/01 10:29:35;;;;;;;22.23;16.10;;;;;;;3.78;nan;98515.06;5072693;28;20204;-73
2023/03/01 10:32:06;;;;;;;19.23;15.40;;;;;;;3.78;nan;98515.91;5073251;28;20220;-72
2023/03/01 10:34:35;;;;;;;18.73;14.73;;;;;;;4.13;nan;98509.44;5072738;28;20258;-73
2023/03/01 10:37:11;;;;;;;16.83;14.03;;;;;;;4.20;nan;98508.59;5073099;28;20210;-73
2023/03/01 10:39:38;;;;;;;17.63;14.53;;;;;;;4.42;nan;98504.44;5073062;28;20193;-72
2023/03/01 10:42:19;;;;;;;18.93;14.47;;;;;;;4.35;nan;98503.47;5072532;28;20235;-72
2023/03/01 10:44:49;;;;;;;18.03;14.47;;;;;;;4.37;nan;98501.47;5072423;28;20185;-73
2023/03/01 10:47:21;;;;;;;16.07;14.30;;;;;;;4.63;nan;98502.91;5072826;28;20200;-72
2023/03/01 10:50:18;;;;;;;18.40;14.53;;;;;;;4.78;nan;98506.44;5073052;28;20189;-73
2023/03/01 10:52:57;;;;;;;17.20;13.97;;;;;;;4.82;nan;98509.53;5073092;28;20227;-72
2023/03/01 10:55:38;;;;;;;15.97;13.40;;;;;;;4.93;nan;98503.91;5073051;28;20204;-72
2023/03/01 10:58:19;;;;;;;17.17;14.03;;;;;;;4.96;nan;98506.19;5072921;28;20208;-73
2023/03/01 11:00:57;;;;;;;19.20;14.07;;;;;;;5.05;nan;98492.81;5072580;28;20671;-73
2023/03/01 11:03:31;;;;;;;17.63;14.43;;;;;;;4.97;nan;98489.41;5072682;28;20224;-73
2023/03/01 11:06:04;;;;;;;17.00;14.80;;;;;;;4.59;nan;98484.97;5072561;28;20230;-73
2023/03/01 11:08:51;;;;;;;19.43;15.00;;;;;;;4.97;nan;98481.50;5071685;28;20208;-73
2023/03/01 11:11:32;;;;;;;16.37;13.53;;;;;;;5.14;nan;98469.84;5072717;28;20189;-73
2023/03/01 11:14:04;;;;;;;18.37;14.10;;;;;;;5.22;nan;98475.91;5075920;28;20208;-74
2023/03/01 11:16:37;;;;;;;17.17;14.67;;;;;;;4.74;nan;98468.25;5076171;28;20220;-74
2023/03/01 11:19:09;;;;;;;17.07;15.10;;;;;;;5.05;nan;98460.34;5077060;28;20332;-74
2023/03/01 11:21:39;;;;;;;16.87;13.93;;;;;;;5.34;nan;98457.84;5076921;28;20569;-75
2023/03/01 11:24:11;;;;;;;19.10;14.87;;;;;;;5.32;nan;98459.84;5076462;28;20211;-74
2023/03/01 11:26:47;;;;;;;17.03;14.57;;;;;;;5.20;nan;98454.16;5074780;28;20189;-75
2023/03/01 11:29:36;;;;;;;18.30;14.13;;;;;;;5.40;nan;98450.06;5075588;28;20235;-74
2023/03/01 11:32:07;;;;;;;15.83;13.20;;;;;;;5.28;nan;98446.19;5077448;28;20220;-76
2023/03/01 11:34:40;;;;;;;16.27;14.53;;;;;;;5.24;nan;98430.91;5076741;28;20213;-76
2023/03/01 11:37:25;;;;;;;16.60;14.20;;;;;;;5.46;nan;98432.69;5078024;28;20208;-76
2023/03/01 11:39:59;;;;;;;17.97;13.73;;;;;;;5.53;nan;98417.81;5060454;28;20195;-75
2023/03/01 11:42:41;;;;;;;18.87;14.43;;;;;;;5.76;nan;98419.41;5076378;28;20232;-75
2023/03/01 11:45:12;;;;;;;17.57;14.07;;;;;;;5.71;nan;98420.94;5076429;28;20188;-77
2023/03/01 11:47:38;;;;;;;18.73;12.90;;;;;;;5.90;nan;98421.28;5078881;28;20276;-77
2023/03/01 11:50:07;;;;;;;15.90;13.57;;;;;;;5.86;nan;98416.53;5077786;28;20204;-76
2023/03/01 11:53:00;;;;;;;16.00;13.60;;;;;;;5.92;nan;98416.63;5077208;28;20246;-76